createdAt,value
2018-09-08T00:00:53.064Z,3.30
2018-09-08T00:03:21.252Z,3.90
2018-09-08T00:05:49.557Z,3.30
2018-09-08T00:08:17.812Z,3.40
2018-09-08T00:10:46.016Z,3.30
2018-09-08T00:13:14.228Z,3.43
2018-09-08T00:15:47.708Z,3.63
2018-09-08T00:18:21.161Z,3.57
2018-09-08T00:20:54.776Z,3.40
2018-09-08T00:23:28.244Z,3.00
2018-09-08T00:26:01.844Z,3.03
2018-09-08T00:29:00.105Z,3.43
2018-09-08T00:31:28.301Z,3.37
2018-09-08T00:33:56.461Z,3.07
2018-09-08T00:36:25.504Z,3.07
2018-09-08T00:38:53.678Z,3.60
2018-09-08T00:41:21.876Z,3.63
2018-09-08T00:43:50.065Z,3.33
2018-09-08T00:46:18.225Z,3.13
2018-09-08T00:48:46.432Z,2.90
2018-09-08T00:51:14.645Z,2.90
2018-09-08T00:53:42.852Z,2.43
2018-09-08T00:56:11.116Z,2.47
2018-09-08T00:58:39.300Z,2.70
2018-09-08T01:01:07.581Z,2.77
2018-09-08T01:03:35.797Z,2.60
2018-09-08T01:06:03.961Z,2.30
2018-09-08T01:08:32.170Z,2.60
2018-09-08T01:11:00.336Z,2.73
2018-09-08T01:13:28.602Z,3.20
2018-09-08T01:15:56.789Z,2.63
2018-09-08T01:18:25.988Z,2.50
2018-09-08T01:20:54.183Z,2.20
2018-09-08T01:23:22.399Z,2.20
2018-09-08T01:25:50.633Z,2.23
2018-09-08T01:28:18.836Z,2.13
2018-09-08T01:30:47.022Z,2.73
2018-09-08T01:33:15.236Z,2.43
2018-09-08T01:35:43.397Z,3.00
2018-09-08T01:38:11.608Z,2.00
2018-09-08T01:40:39.768Z,2.80
2018-09-08T01:43:07.919Z,2.20
2018-09-08T01:45:36.141Z,2.70
2018-09-08T01:48:04.312Z,2.80
2018-09-08T01:50:32.486Z,2.77
2018-09-08T01:53:00.692Z,3.07
2018-09-08T01:55:28.964Z,3.30
2018-09-08T01:57:57.120Z,3.30
2018-09-08T02:00:25.308Z,3.53
2018-09-08T02:02:53.514Z,2.83
2018-09-08T02:05:21.748Z,3.67
2018-09-08T02:07:49.924Z,2.77
2018-09-08T02:10:18.169Z,3.07
2018-09-08T02:12:46.328Z,3.13
2018-09-08T02:15:14.525Z,3.20
2018-09-08T02:17:42.699Z,2.93
2018-09-08T02:20:10.852Z,3.13
2018-09-08T02:22:39.216Z,2.93
2018-09-08T02:25:07.413Z,3.33
2018-09-08T02:27:35.608Z,3.30
2018-09-08T02:30:04.213Z,3.23
2018-09-08T02:32:32.373Z,3.13
2018-09-08T02:35:00.542Z,3.63
2018-09-08T02:37:28.715Z,3.03
2018-09-08T02:39:56.901Z,3.03
2018-09-08T02:42:25.078Z,3.10
2018-09-08T02:44:53.256Z,3.50
2018-09-08T02:47:21.448Z,3.23
2018-09-08T02:50:00.973Z,3.70
2018-09-08T02:52:28.152Z,3.80
2018-09-08T02:54:55.347Z,3.57
2018-09-08T02:57:22.634Z,3.43
2018-09-08T02:59:49.815Z,3.50
2018-09-08T03:02:17.002Z,4.00
2018-09-08T03:04:44.273Z,3.60
2018-09-08T03:07:15.106Z,3.33
2018-09-08T03:09:44.740Z,3.90
2018-09-08T03:12:11.915Z,3.30
2018-09-08T03:14:39.112Z,4.50
2018-09-08T03:17:06.959Z,3.83
2018-09-08T03:19:34.182Z,3.60
2018-09-08T03:22:01.548Z,3.90
2018-09-08T03:24:28.758Z,4.23
2018-09-08T03:26:55.943Z,3.80
2018-09-08T03:29:23.116Z,3.87
2018-09-08T03:31:50.336Z,4.23
2018-09-08T03:34:17.540Z,4.57
2018-09-08T03:36:44.736Z,4.33
2018-09-08T03:39:11.929Z,3.90
2018-09-08T03:41:39.103Z,3.57
2018-09-08T03:44:06.320Z,4.37
2018-09-08T03:46:33.464Z,4.40
2018-09-08T03:49:00.628Z,4.73
2018-09-08T03:51:27.829Z,3.80
2018-09-08T03:53:55.028Z,3.33
2018-09-08T03:56:22.234Z,4.23
2018-09-08T03:58:49.499Z,4.93
2018-09-08T04:01:16.704Z,4.17
2018-09-08T04:03:44.885Z,4.20
2018-09-08T04:06:13.108Z,3.90
2018-09-08T04:08:41.278Z,4.67
2018-09-08T04:11:09.525Z,4.07
2018-09-08T04:13:37.756Z,3.67
2018-09-08T04:16:05.968Z,4.63
2018-09-08T04:18:34.172Z,4.47
2018-09-08T04:21:02.356Z,4.07
2018-09-08T04:23:30.771Z,4.57
2018-09-08T04:25:59.148Z,4.20
2018-09-08T04:28:27.310Z,4.77
2018-09-08T04:30:55.494Z,4.30
2018-09-08T04:33:23.676Z,4.33
2018-09-08T04:35:51.843Z,4.40
2018-09-08T04:38:20.016Z,4.33
2018-09-08T04:40:48.201Z,4.47
2018-09-08T04:43:16.376Z,4.40
2018-09-08T04:45:44.540Z,4.50
2018-09-08T04:48:12.809Z,4.33
2018-09-08T04:50:41.086Z,4.03
2018-09-08T04:53:09.534Z,4.13
2018-09-08T04:55:38.006Z,4.13
2018-09-08T04:58:06.276Z,4.87
2018-09-08T05:00:34.653Z,4.33
2018-09-08T05:03:03.010Z,4.37
2018-09-08T05:05:31.210Z,4.17
2018-09-08T05:07:59.408Z,5.07
2018-09-08T05:10:27.632Z,4.67
2018-09-08T05:12:55.797Z,4.70
2018-09-08T05:15:23.949Z,4.80
2018-09-08T05:17:52.124Z,5.30
2018-09-08T05:20:20.351Z,5.27
2018-09-08T05:22:48.546Z,5.23
2018-09-08T05:25:16.740Z,5.80
2018-09-08T05:27:44.931Z,5.63
2018-09-08T05:30:13.160Z,6.50
2018-09-08T05:32:41.372Z,6.93
2018-09-08T05:35:09.768Z,5.90
2018-09-08T05:37:37.825Z,6.23
2018-09-08T05:40:06.032Z,5.43
2018-09-08T05:42:34.188Z,5.90
2018-09-08T05:45:02.406Z,5.80
2018-09-08T05:47:30.580Z,6.93
2018-09-08T05:49:58.794Z,5.97
2018-09-08T05:52:27.021Z,6.13
2018-09-08T05:54:55.208Z,6.30
2018-09-08T05:57:23.380Z,5.87
2018-09-08T05:59:51.609Z,6.23
2018-09-08T06:02:19.836Z,6.40
2018-09-08T06:04:48.017Z,7.27
2018-09-08T06:07:16.367Z,7.53
2018-09-08T06:09:44.541Z,6.80
2018-09-08T06:12:12.708Z,6.03
2018-09-08T06:14:41.024Z,7.10
2018-09-08T06:17:09.193Z,6.83
2018-09-08T06:19:37.454Z,7.67
2018-09-08T06:22:05.613Z,7.20
2018-09-08T06:24:33.936Z,6.67
2018-09-08T06:27:01.984Z,7.60
2018-09-08T06:29:30.165Z,5.73
2018-09-08T06:31:58.485Z,5.43
2018-09-08T06:34:26.700Z,5.53
2018-09-08T06:36:54.924Z,5.57
2018-09-08T06:39:23.073Z,5.43
2018-09-08T06:41:51.248Z,5.37
2018-09-08T06:44:19.456Z,5.10
2018-09-08T06:46:47.689Z,4.57
2018-09-08T06:49:15.856Z,5.60
2018-09-08T06:51:44.073Z,5.23
2018-09-08T06:54:12.249Z,5.13
2018-09-08T06:56:40.436Z,5.40
2018-09-08T06:59:08.621Z,4.17
2018-09-08T07:01:36.892Z,5.13
2018-09-08T07:04:05.081Z,7.30
2018-09-08T07:06:33.292Z,4.70
2018-09-08T07:09:01.505Z,4.40
2018-09-08T07:11:29.687Z,4.63
2018-09-08T07:13:57.870Z,6.43
2018-09-08T07:16:26.134Z,5.43
2018-09-08T07:18:54.305Z,4.50
2018-09-08T07:21:22.480Z,5.30
2018-09-08T07:23:50.679Z,4.83
2018-09-08T07:26:19.041Z,4.87
2018-09-08T07:28:47.208Z,5.03
2018-09-08T07:31:15.396Z,6.67
2018-09-08T07:33:43.645Z,4.80
2018-09-08T07:36:11.848Z,4.60
2018-09-08T07:38:40.153Z,4.20
2018-09-08T07:41:08.333Z,4.77
2018-09-08T07:43:36.728Z,5.03
2018-09-08T07:46:04.966Z,4.33
2018-09-08T07:48:33.121Z,4.30
2018-09-08T07:51:01.317Z,5.07
2018-09-08T07:53:29.536Z,5.80
2018-09-08T07:55:57.684Z,4.50
2018-09-08T07:58:25.920Z,4.33
2018-09-08T08:00:54.097Z,4.07
2018-09-08T08:03:22.281Z,3.80
2018-09-08T08:05:50.456Z,4.00
2018-09-08T08:08:18.633Z,3.57
2018-09-08T08:10:46.793Z,3.60
2018-09-08T08:13:15.127Z,3.90
2018-09-08T08:15:43.588Z,3.80
2018-09-08T08:18:11.909Z,3.47
2018-09-08T08:20:40.140Z,3.53
2018-09-08T08:23:08.497Z,3.90
2018-09-08T08:25:40.140Z,3.70
2018-09-08T08:28:08.343Z,3.70
2018-09-08T08:30:36.532Z,3.60
2018-09-08T08:33:04.765Z,3.50
2018-09-08T08:35:32.987Z,3.80
2018-09-08T08:38:01.187Z,4.07
2018-09-08T08:40:29.395Z,3.40
2018-09-08T08:42:57.562Z,4.07
2018-09-08T08:45:25.766Z,3.90
2018-09-08T08:47:53.973Z,3.90
2018-09-08T08:50:33.384Z,3.20
2018-09-08T08:53:12.965Z,5.47
2018-09-08T08:55:41.206Z,3.67
2018-09-08T08:58:09.498Z,3.43
2018-09-08T09:00:37.680Z,3.27
2018-09-08T09:03:05.880Z,3.17
2018-09-08T09:05:34.078Z,4.67
2018-09-08T09:08:02.476Z,3.67
2018-09-08T09:10:30.677Z,3.23
2018-09-08T09:12:59.011Z,3.43
2018-09-08T09:15:27.564Z,4.67
2018-09-08T09:17:55.464Z,4.00
2018-09-08T09:20:34.933Z,3.93
2018-09-08T09:23:17.759Z,4.93
2018-09-08T09:25:45.549Z,2.97
2018-09-08T09:28:13.762Z,3.30
2018-09-08T09:30:41.988Z,3.53
2018-09-08T09:33:10.229Z,2.77
2018-09-08T09:35:38.465Z,2.97
2018-09-08T09:38:06.873Z,3.77
2018-09-08T09:40:35.105Z,3.40
2018-09-08T09:43:03.326Z,3.73
2018-09-08T09:45:31.503Z,3.40
2018-09-08T09:47:59.989Z,4.43
2018-09-08T09:50:28.196Z,2.50
2018-09-08T09:52:56.483Z,2.87
2018-09-08T09:55:24.604Z,2.97
2018-09-08T09:57:52.757Z,3.17
2018-09-08T10:00:26.327Z,3.30
2018-09-08T10:02:59.880Z,2.97
2018-09-08T10:05:28.092Z,2.70
2018-09-08T10:07:56.284Z,3.10
2018-09-08T10:10:26.950Z,2.67
2018-09-08T10:12:55.166Z,3.17
2018-09-08T10:15:23.337Z,2.77
2018-09-08T10:17:51.561Z,2.50
2018-09-08T10:20:21.110Z,4.00
2018-09-08T10:22:49.300Z,3.17
2018-09-08T10:25:18.497Z,3.27
2018-09-08T10:27:47.205Z,2.90
2018-09-08T10:30:15.791Z,3.60
2018-09-08T10:32:44.696Z,3.60
2018-09-08T10:35:13.164Z,3.67
2018-09-08T10:37:41.345Z,3.20
2018-09-08T10:40:10.265Z,2.77
2018-09-08T10:42:38.408Z,2.60
2018-09-08T10:45:06.653Z,2.60
2018-09-08T10:47:34.832Z,2.90
2018-09-08T10:50:03.113Z,2.50
2018-09-08T10:52:33.777Z,3.07
2018-09-08T10:55:02.021Z,3.20
2018-09-08T10:57:30.631Z,2.83
2018-09-08T10:59:59.387Z,2.67
2018-09-08T11:02:28.010Z,2.57
2018-09-08T11:04:55.946Z,3.13
2018-09-08T11:07:24.169Z,2.90
2018-09-08T11:09:52.384Z,2.77
2018-09-08T11:12:20.631Z,2.87
2018-09-08T11:14:48.829Z,2.90
2018-09-08T11:17:17.124Z,2.97
2018-09-08T11:19:45.416Z,2.70
2018-09-08T11:22:13.831Z,2.13
2018-09-08T11:24:42.040Z,3.10
2018-09-08T11:27:10.571Z,2.30
2018-09-08T11:29:38.772Z,3.00
2018-09-08T11:32:07.229Z,2.70
2018-09-08T11:34:38.017Z,2.90
2018-09-08T11:37:06.828Z,2.47
2018-09-08T11:39:35.072Z,2.27
2018-09-08T11:42:03.419Z,3.00
2018-09-08T11:44:31.653Z,2.63
2018-09-08T11:46:59.925Z,2.70
2018-09-08T11:49:28.189Z,2.50
2018-09-08T11:51:56.385Z,2.60
2018-09-08T11:54:24.676Z,2.67
2018-09-08T11:56:53.013Z,2.97
2018-09-08T11:59:21.222Z,2.30
2018-09-08T12:01:49.413Z,2.80
2018-09-08T12:04:17.746Z,3.00
2018-09-08T12:06:45.920Z,2.67
2018-09-08T12:09:14.098Z,2.50
2018-09-08T12:11:42.281Z,2.57
2018-09-08T12:14:10.824Z,2.60
2018-09-08T12:16:39.128Z,2.67
2018-09-08T12:19:07.490Z,2.60
2018-09-08T12:21:35.660Z,2.53
2018-09-08T12:24:03.858Z,2.17
2018-09-08T12:26:32.038Z,2.00
2018-09-08T12:29:00.255Z,2.50
2018-09-08T12:31:28.717Z,2.63
2018-09-08T12:33:57.174Z,2.10
2018-09-08T12:36:25.608Z,2.70
2018-09-08T12:38:54.421Z,3.10
2018-09-08T12:41:22.681Z,2.80
2018-09-08T12:43:51.191Z,2.63
2018-09-08T12:46:20.450Z,1.97
2018-09-08T12:48:48.679Z,1.90
2018-09-08T12:51:16.860Z,2.10
2018-09-08T12:53:45.016Z,2.33
2018-09-08T12:56:13.217Z,2.10
2018-09-08T12:58:41.541Z,2.07
2018-09-08T13:01:09.773Z,2.23
2018-09-08T13:03:38.077Z,2.50
2018-09-08T13:06:06.310Z,2.40
2018-09-08T13:08:34.487Z,2.10
2018-09-08T13:11:02.732Z,2.60
2018-09-08T13:13:31.013Z,2.07
2018-09-08T13:15:59.233Z,2.50
2018-09-08T13:18:27.468Z,2.23
2018-09-08T13:20:55.641Z,2.03
2018-09-08T13:23:23.805Z,2.33
2018-09-08T13:25:52.071Z,2.00
2018-09-08T13:28:20.225Z,1.90
2018-09-08T13:30:48.414Z,2.10
2018-09-08T13:33:16.661Z,2.10
2018-09-08T13:35:44.856Z,2.07
2018-09-08T13:38:13.059Z,2.97
2018-09-08T13:40:41.387Z,1.63
2018-09-08T13:43:09.653Z,2.20
2018-09-08T13:45:37.835Z,2.10
2018-09-08T13:48:06.121Z,2.27
2018-09-08T13:50:34.287Z,2.23
2018-09-08T13:53:02.500Z,2.20
2018-09-08T13:55:30.680Z,1.73
2018-09-08T13:57:58.860Z,2.20
2018-09-08T14:00:27.085Z,2.50
2018-09-08T14:02:55.308Z,1.80
2018-09-08T14:05:23.457Z,1.70
2018-09-08T14:07:53.871Z,1.97
2018-09-08T14:10:22.065Z,1.90
2018-09-08T14:12:50.256Z,2.47
2018-09-08T14:15:18.523Z,2.10
2018-09-08T14:17:46.661Z,2.07
2018-09-08T14:20:14.859Z,2.00
2018-09-08T14:22:43.081Z,2.30
2018-09-08T14:25:11.287Z,1.90
2018-09-08T14:27:39.495Z,2.13
2018-09-08T14:30:07.760Z,2.10
2018-09-08T14:32:35.972Z,2.40
2018-09-08T14:35:04.244Z,1.97
2018-09-08T14:37:32.428Z,2.40
2018-09-08T14:40:00.646Z,2.70
2018-09-08T14:42:28.819Z,2.17
2018-09-08T14:44:57.140Z,2.03
2018-09-08T14:47:25.405Z,2.47
2018-09-08T14:49:53.581Z,2.40
2018-09-08T14:52:21.780Z,2.30
2018-09-08T14:54:50.013Z,2.77
2018-09-08T14:57:18.225Z,2.30
2018-09-08T14:59:46.414Z,2.30
2018-09-08T15:02:14.591Z,2.77
2018-09-08T15:04:42.863Z,2.50
2018-09-08T15:07:10.934Z,2.13
2018-09-08T15:09:39.152Z,2.40
2018-09-08T15:12:07.508Z,3.07
2018-09-08T15:14:35.810Z,2.53
2018-09-08T15:17:05.314Z,2.00
2018-09-08T15:19:33.519Z,2.60
2018-09-08T15:22:01.657Z,2.17
2018-09-08T15:24:29.877Z,2.30
2018-09-08T15:26:58.034Z,3.13
2018-09-08T15:29:26.210Z,2.33
2018-09-08T15:31:54.472Z,2.30
2018-09-08T15:34:22.660Z,2.53
2018-09-08T15:36:50.897Z,2.00
2018-09-08T15:39:19.168Z,2.60
2018-09-08T15:41:47.393Z,2.53
2018-09-08T15:44:15.669Z,3.07
2018-09-08T15:46:43.952Z,2.60
2018-09-08T15:49:12.131Z,2.63
2018-09-08T15:51:40.369Z,2.33
2018-09-08T15:54:08.604Z,2.50
2018-09-08T15:56:36.862Z,2.80
2018-09-08T15:59:05.058Z,2.73
2018-09-08T16:01:33.264Z,2.17
2018-09-08T16:04:01.480Z,2.60
2018-09-08T16:06:29.657Z,2.30
2018-09-08T16:08:57.909Z,2.10
2018-09-08T22:20:39.700Z,5.67
2018-09-08T22:23:08.040Z,6.17
2018-09-08T22:25:36.240Z,6.37
2018-09-08T22:28:04.444Z,6.00
2018-09-08T22:30:32.693Z,5.70
2018-09-08T22:33:00.900Z,6.23
2018-09-08T22:35:29.104Z,5.70
2018-09-08T22:37:57.414Z,5.67
2018-09-08T22:40:25.589Z,5.33
2018-09-08T22:42:53.772Z,5.80
2018-09-08T22:45:22.220Z,5.73
2018-09-08T22:47:50.413Z,5.47
2018-09-08T22:50:18.616Z,5.33
2018-09-08T22:52:47.085Z,6.37
2018-09-08T22:55:15.344Z,6.20
2018-09-08T22:57:43.541Z,5.23
2018-09-08T23:00:11.748Z,6.17
2018-09-08T23:02:39.949Z,6.27
2018-09-08T23:05:08.196Z,5.90
2018-09-08T23:07:36.528Z,6.20
2018-09-08T23:10:04.796Z,6.37
2018-09-08T23:12:33.083Z,6.50
2018-09-08T23:15:01.221Z,6.17
2018-09-08T23:17:29.404Z,6.23
2018-09-08T23:19:57.700Z,6.73
2018-09-08T23:22:25.893Z,6.13
2018-09-08T23:24:54.273Z,7.63
2018-09-08T23:27:22.492Z,6.63
2018-09-08T23:29:50.790Z,7.30
2018-09-08T23:32:19.181Z,6.73
2018-09-08T23:34:47.546Z,7.33
2018-09-08T23:37:15.853Z,6.70
2018-09-08T23:39:44.048Z,7.40
2018-09-08T23:42:12.320Z,7.30
2018-09-08T23:44:40.492Z,7.70
2018-09-08T23:47:08.800Z,6.93
2018-09-08T23:49:36.994Z,6.73
2018-09-08T23:52:05.292Z,6.87
2018-09-08T23:54:33.488Z,6.93
2018-09-08T23:57:01.668Z,7.43
2018-09-08T23:59:30.045Z,6.70
